Time;durP1;ratioP1;P1;durP2;ratioP2;P2;SDS_P1;SDS_P2;PMS_P1;PMS_P2;Temp;Humidity;BMP_temperature;BMP_pressure;BME280_temperature;BME280_humidity;BME280_pressure;Samples;Min_cycle;Max_cycle;Signal;HPM_P1;HPM_P2
2022/02/24 00:02:01;;;;;;;30.08;12.20;;;;;;;0.92;68.95;101518.39;1645810;85;21240;-72
2022/02/24 00:04:27;;;;;;;31.55;12.43;;;;;;;0.90;69.00;101529.79;1645872;85;21111;-72
2022/02/24 00:06:53;;;;;;;36.83;12.82;;;;;;;0.89;69.03;101526.78;1645676;86;21129;-72
2022/02/24 00:09:19;;;;;;;32.80;12.70;;;;;;;0.89;69.09;101521.69;1620405;87;21078;-73
2022/02/24 00:11:45;;;;;;;30.40;12.80;;;;;;;0.88;69.06;101520.36;1645589;85;21112;-72
2022/02/24 00:14:11;;;;;;;35.05;11.80;;;;;;;0.86;69.09;101528.34;1645305;86;21028;-73
2022/02/24 00:16:37;;;;;;;46.17;13.87;;;;;;;0.84;69.08;101525.73;1638058;87;20884;-73
2022/02/24 00:19:03;;;;;;;34.90;13.20;;;;;;;0.82;69.17;101524.81;1661262;85;21091;-72
2022/02/24 00:21:29;;;;;;;40.30;13.90;;;;;;;0.81;69.19;101525.63;1672903;85;20886;-73
2022/02/24 00:23:55;;;;;;;31.37;12.60;;;;;;;0.79;69.27;101523.83;1671369;85;21811;-72
2022/02/24 00:26:23;;;;;;;33.08;12.63;;;;;;;0.76;69.29;101519.89;1670972;85;21085;-72
2022/02/24 00:28:49;;;;;;;31.73;12.97;;;;;;;0.78;69.30;101519.55;1660531;85;20973;-72
2022/02/24 00:31:15;;;;;;;37.57;12.80;;;;;;;0.79;69.39;101517.46;1649705;85;20966;-72
2022/02/24 00:33:41;;;;;;;34.65;12.53;;;;;;;0.80;69.38;101517.52;1657231;85;25290;-73
2022/02/24 00:36:07;;;;;;;30.30;12.15;;;;;;;0.79;69.47;101520.88;1616464;88;21065;-72
2022/02/24 00:38:34;;;;;;;35.08;12.68;;;;;;;0.81;69.48;101522.20;1658623;84;26905;-72
2022/02/24 00:41:01;;;;;;;24.57;11.22;;;;;;;0.82;69.48;101517.58;1695322;83;21024;-72
2022/02/24 00:43:27;;;;;;;29.75;12.30;;;;;;;0.79;69.46;101515.78;1622581;86;21062;-72
2022/02/24 00:45:53;;;;;;;31.50;12.15;;;;;;;0.78;69.46;101512.78;1651416;84;21655;-72
2022/02/24 00:48:19;;;;;;;28.57;11.78;;;;;;;0.78;69.54;101519.55;1623893;86;21082;-73
2022/02/24 00:50:45;;;;;;;32.42;10.78;;;;;;;0.77;69.57;101517.81;1643207;85;21101;-72
2022/02/24 00:53:11;;;;;;;34.85;12.53;;;;;;;0.76;69.53;101512.25;1622185;87;21096;-72
2022/02/24 00:55:39;;;;;;;36.77;12.40;;;;;;;0.75;69.59;101504.16;1642623;86;21084;-72
2022/02/24 00:58:05;;;;;;;26.52;11.63;;;;;;;0.73;69.60;101507.05;1643684;85;20998;-72
2022/02/24 01:00:31;;;;;;;27.98;10.72;;;;;;;0.72;69.65;101516.36;1643002;85;21417;-72
2022/02/24 01:02:57;;;;;;;29.65;11.22;;;;;;;0.71;69.58;101512.08;1643257;86;28270;-72
2022/02/24 01:05:23;;;;;;;30.70;11.00;;;;;;;0.67;69.64;101506.41;1643175;86;21054;-72
2022/02/24 01:07:49;;;;;;;29.40;11.68;;;;;;;0.66;69.61;101505.54;1642611;85;21057;-72
2022/02/24 01:10:15;;;;;;;29.32;10.80;;;;;;;0.64;69.69;101496.11;1640979;85;21081;-72
2022/02/24 01:12:41;;;;;;;29.33;10.40;;;;;;;0.62;69.71;101496.05;1645421;85;21141;-72
2022/02/24 01:15:09;;;;;;;28.52;10.90;;;;;;;0.60;69.77;101491.30;1666879;85;20931;-72
2022/02/24 01:17:43;;;;;;;35.13;11.48;;;;;;;0.56;69.77;101480.55;1656009;85;20966;-72
2022/02/24 01:20:10;;;;;;;37.38;12.45;;;;;;;0.54;69.78;101476.20;1640909;85;21062;-72
2022/02/24 01:22:37;;;;;;;29.18;10.93;;;;;;;0.54;69.87;101480.02;1651857;84;21557;-72
2022/02/24 01:25:05;;;;;;;30.20;11.30;;;;;;;0.52;69.85;101479.13;1667787;85;21031;-72
2022/02/24 01:27:31;;;;;;;32.50;11.22;;;;;;;0.52;69.91;101474.88;1669020;85;21018;-72
2022/02/24 01:29:58;;;;;;;30.43;11.97;;;;;;;0.51;69.93;101465.95;1667847;85;20994;-72
2022/02/24 01:32:27;;;;;;;29.82;11.70;;;;;;;0.49;70.03;101462.47;1649374;86;21058;-72
2022/02/24 01:34:58;;;;;;;38.05;12.70;;;;;;;0.48;70.02;101463.28;1667222;85;21576;-72
2022/02/24 01:37:22;;;;;;;28.40;10.95;;;;;;;0.47;70.06;101455.19;1639115;86;21037;-72
2022/02/24 01:39:49;;;;;;;32.60;11.70;;;;;;;0.47;70.04;101452.23;1639128;85;21130;-72
2022/02/24 01:42:15;;;;;;;29.00;10.53;;;;;;;0.47;70.15;101449.69;1644027;85;20939;-73
2022/02/24 01:44:45;;;;;;;34.75;11.85;;;;;;;0.46;70.12;101440.33;1655782;85;21035;-73
2022/02/24 01:47:12;;;;;;;27.60;10.13;;;;;;;0.45;70.19;101441.13;1665660;85;20937;-72
2022/02/24 01:49:39;;;;;;;38.53;11.85;;;;;;;0.48;70.21;101439.11;1657741;85;21040;-72
2022/02/24 01:52:08;;;;;;;31.90;10.82;;;;;;;0.46;70.20;101431.83;1646487;87;21003;-72
2022/02/24 01:54:34;;;;;;;32.15;10.45;;;;;;;0.45;70.22;101430.09;1645509;87;21591;-72
2022/02/24 01:57:01;;;;;;;30.05;11.45;;;;;;;0.43;70.23;101422.40;1652872;85;21124;-73
2022/02/24 01:59:29;;;;;;;26.02;9.85;;;;;;;0.42;70.32;101424.48;1672282;85;21024;-73
2022/02/24 02:01:56;;;;;;;37.03;11.00;;;;;;;0.41;70.25;101427.84;1672237;85;20933;-73
2022/02/24 02:04:24;;;;;;;31.27;11.78;;;;;;;0.41;70.37;101424.02;1661485;85;21020;-72
2022/02/24 02:06:50;;;;;;;33.67;11.40;;;;;;;0.43;70.39;101419.86;1672545;85;20952;-73
2022/02/24 02:09:18;;;;;;;30.02;8.63;;;;;;;0.44;70.48;101420.72;1645181;85;21000;-73
2022/02/24 02:11:45;;;;;;;30.72;11.55;;;;;;;0.44;70.54;101415.23;1646049;86;22193;-72
2022/02/24 02:14:12;;;;;;;24.77;9.57;;;;;;;0.45;70.43;101415.69;1646458;85;20921;-73
2022/02/24 02:16:50;;;;;;;25.85;10.05;;;;;;;0.44;70.56;101412.69;1655080;85;21092;-72
2022/02/24 02:19:24;;;;;;;26.65;10.75;;;;;;;0.45;70.58;101410.60;1672766;85;21437;-72
2022/02/24 02:21:50;;;;;;;27.52;9.80;;;;;;;0.44;70.54;101407.59;1675120;85;20957;-72
2022/02/24 02:24:17;;;;;;;25.10;10.80;;;;;;;0.45;70.61;101405.52;1652332;85;20957;-72
2022/02/24 02:26:43;;;;;;;33.60;11.08;;;;;;;0.45;70.58;101402.97;1641111;86;21812;-72
2022/02/24 02:29:12;;;;;;;29.37;10.38;;;;;;;0.45;70.61;101395.34;1645528;85;20947;-73
2022/02/24 02:31:38;;;;;;;26.02;9.88;;;;;;;0.35;70.63;101379.67;1648517;85;20946;-72
2022/02/24 02:34:08;;;;;;;29.55;11.20;;;;;;;0.45;70.69;101391.93;1626190;86;21380;-72
2022/02/24 02:36:36;;;;;;;30.72;10.40;;;;;;;0.48;70.75;101386.95;1647495;86;21830;-72
2022/02/24 02:39:15;;;;;;;28.25;9.50;;;;;;;0.50;70.83;101382.79;1647573;86;21453;-73
2022/02/24 02:41:46;;;;;;;32.75;11.25;;;;;;;0.55;70.82;101377.03;1669043;85;20949;-73
2022/02/24 02:44:14;;;;;;;29.25;10.38;;;;;;;0.57;70.83;101374.54;1648198;85;20928;-73
2022/02/24 02:46:47;;;;;;;31.17;11.10;;;;;;;0.60;70.89;101372.11;1671309;85;21492;-72
2022/02/24 02:49:13;;;;;;;29.57;10.35;;;;;;;0.61;70.90;101367.07;1645787;86;22825;-73
2022/02/24 02:51:38;;;;;;;30.23;10.85;;;;;;;0.64;70.99;101368.86;1645676;86;22189;-73
2022/02/24 02:54:20;;;;;;;32.45;10.80;;;;;;;0.65;70.97;101364.23;1648351;85;21409;-73
2022/02/24 02:56:46;;;;;;;31.73;11.33;;;;;;;0.68;70.98;101364.75;1660546;84;21496;-73
2022/02/24 02:59:14;;;;;;;33.13;11.10;;;;;;;0.70;70.98;101358.91;1659783;85;22212;-73
2022/02/24 03:01:40;;;;;;;30.23;10.60;;;;;;;0.70;70.98;101353.81;1628958;86;21055;-73
2022/02/24 03:04:06;;;;;;;27.90;10.55;;;;;;;0.72;70.99;101351.33;1645920;87;21623;-73
2022/02/24 03:06:32;;;;;;;34.45;11.25;;;;;;;0.70;71.04;101347.45;1625568;87;21496;-73
2022/02/24 03:08:59;;;;;;;33.05;10.75;;;;;;;0.68;71.03;101342.71;1643349;85;21582;-73
2022/02/24 03:11:24;;;;;;;28.57;10.63;;;;;;;0.66;71.03;101347.75;1643523;86;21416;-73
2022/02/24 03:13:51;;;;;;;27.77;10.67;;;;;;;0.65;71.03;101343.88;1634327;85;21632;-72
2022/02/24 03:16:17;;;;;;;35.73;11.35;;;;;;;0.63;71.08;101340.41;1670737;85;21416;-73
2022/02/24 03:18:43;;;;;;;32.07;11.67;;;;;;;0.62;71.11;101339.54;1671078;85;20935;-73
2022/02/24 03:21:11;;;;;;;25.40;9.98;;;;;;;0.61;71.08;101335.27;1660750;85;22124;-73
2022/02/24 03:23:39;;;;;;;38.28;11.45;;;;;;;0.61;71.13;101334.39;1627030;87;22075;-73
2022/02/24 03:26:05;;;;;;;27.50;10.82;;;;;;;0.61;71.19;101334.39;1645500;86;22291;-73
2022/02/24 03:28:31;;;;;;;32.33;10.63;;;;;;;0.60;71.17;101332.26;1645827;86;22125;-73
2022/02/24 03:30:57;;;;;;;29.20;10.75;;;;;;;0.60;71.19;101337.34;1655068;85;20973;-73
2022/02/24 03:33:24;;;;;;;32.17;10.25;;;;;;;0.58;71.14;101331.34;1647640;85;21491;-73
2022/02/24 03:35:50;;;;;;;26.12;9.65;;;;;;;0.57;71.23;101336.38;1649422;85;21547;-73
2022/02/24 03:38:15;;;;;;;32.23;11.65;;;;;;;0.55;71.17;101337.59;1668765;85;20905;-73
2022/02/24 03:40:42;;;;;;;26.40;10.45;;;;;;;0.52;71.23;101332.83;1651358;83;21070;-73
2022/02/24 03:43:08;;;;;;;28.87;10.95;;;;;;;0.51;71.31;101337.05;1639770;86;20983;-73
2022/02/24 03:45:34;;;;;;;34.67;12.35;;;;;;;0.53;71.36;101330.71;1598753;87;21648;-73
2022/02/24 03:48:00;;;;;;;32.43;11.73;;;;;;;0.55;71.48;101334.17;1673038;85;21724;-73
2022/02/24 03:50:26;;;;;;;33.40;12.55;;;;;;;0.57;71.50;101332.14;1660787;85;22984;-73
2022/02/24 03:52:52;;;;;;;;;;;;;;;0.62;71.51;101334.86;1675211;85;21093;-72
2022/02/24 03:55:18;;;;;;;27.37;10.35;;;;;;;0.65;71.84;101334.97;1673044;85;20208;-72
2022/02/24 03:57:44;;;;;;;35.45;10.98;;;;;;;0.70;71.61;101332.18;1655180;86;21387;-73
2022/02/24 04:00:11;;;;;;;23.90;10.83;;;;;;;0.72;71.55;101327.14;1670507;85;21030;-72
2022/02/24 04:02:37;;;;;;;25.75;11.43;;;;;;;0.73;71.53;101323.38;1670229;85;21534;-72
2022/02/24 04:05:05;;;;;;;22.98;10.10;;;;;;;0.77;71.65;101317.99;1659131;85;22397;-73
2022/02/24 04:07:30;;;;;;;23.10;10.38;;;;;;;0.81;71.67;101311.78;1653440;83;21453;-73
2022/02/24 04:09:57;;;;;;;23.12;10.15;;;;;;;0.84;71.67;101308.48;1641116;83;21818;-73
2022/02/24 04:12:24;;;;;;;25.57;9.60;;;;;;;0.87;71.68;101308.59;1630286;88;20942;-73
2022/02/24 04:14:50;;;;;;;27.22;10.58;;;;;;;0.89;71.70;101305.28;1597510;88;20926;-73
2022/02/24 04:17:16;;;;;;;20.10;8.70;;;;;;;0.83;71.52;101280.02;1625847;88;21479;-72
2022/02/24 04:19:44;;;;;;;22.93;8.93;;;;;;;0.83;71.52;101280.02;1629090;86;21045;-73
2022/02/24 04:22:10;;;;;;;28.42;9.53;;;;;;;0.93;71.72;101303.30;1624767;88;21066;-72
2022/02/24 04:24:36;;;;;;;25.02;9.08;;;;;;;0.94;71.75;101298.66;1594745;87;21104;-72
2022/02/24 04:27:03;;;;;;;26.15;10.03;;;;;;;0.95;71.76;101289.34;1619306;87;21067;-72
2022/02/24 04:29:29;;;;;;;28.47;9.08;;;;;;;0.95;71.77;101286.80;1622594;86;21101;-72
2022/02/24 04:31:55;;;;;;;19.82;8.03;;;;;;;0.93;71.79;101275.30;1615488;88;21153;-72
2022/02/24 04:34:21;;;;;;;26.80;9.75;;;;;;;0.93;71.77;101275.70;1615826;87;21742;-73
2022/02/24 04:36:47;;;;;;;20.15;7.78;;;;;;;0.91;71.76;101272.23;1615665;87;22348;-73
2022/02/24 04:39:13;;;;;;;18.82;7.85;;;;;;;0.88;71.77;101266.63;1615501;88;21070;-72
2022/02/24 04:41:40;;;;;;;20.00;7.60;;;;;;;0.86;71.78;101268.27;1615506;87;21599;-72
2022/02/24 04:44:06;;;;;;;17.45;7.30;;;;;;;0.80;71.71;101264.64;1641371;87;20994;-73
2022/02/24 04:46:32;;;;;;;18.35;6.75;;;;;;;0.75;71.81;101261.94;1641804;86;21061;-73
2022/02/24 04:48:59;;;;;;;23.22;8.38;;;;;;;0.74;71.82;101260.61;1641919;87;21081;-72
2022/02/24 04:51:25;;;;;;;15.45;6.60;;;;;;;0.72;71.86;101265.66;1634691;86;21144;-72
2022/02/24 04:53:51;;;;;;;23.73;8.80;;;;;;;0.68;71.82;101260.00;1615613;87;20938;-72
2022/02/24 04:56:20;;;;;;;17.23;6.90;;;;;;;0.66;71.89;101256.53;1631586;87;21096;-72
2022/02/24 04:58:46;;;;;;;20.12;7.15;;;;;;;0.66;71.93;101252.72;1642177;86;21128;-72
2022/02/24 05:01:12;;;;;;;16.57;6.67;;;;;;;0.64;71.96;101253.94;1632438;85;21770;-72
2022/02/24 05:03:38;;;;;;;18.55;7.42;;;;;;;0.65;71.99;101249.72;1622547;85;20918;-72
2022/02/24 05:06:05;;;;;;;16.00;6.12;;;;;;;0.63;71.98;101243.70;1634818;85;21081;-72
2022/02/24 05:08:41;;;;;;;;;;;;;;;0.62;72.01;101241.56;1642032;85;21117;-72
2022/02/24 05:11:06;;;;;;;18.25;6.83;;;;;;;0.63;72.31;101244.98;1667512;84;20199;-72
2022/02/24 05:13:32;;;;;;;20.20;9.20;;;;;;;0.63;72.08;101241.16;1661518;85;20970;-74
2022/02/24 05:15:58;;;;;;;16.27;5.77;;;;;;;0.62;72.05;101235.61;1651005;85;20909;-73
2022/02/24 05:18:24;;;;;;;21.97;8.30;;;;;;;0.61;72.07;101237.70;1651232;85;21735;-73
2022/02/24 05:20:50;;;;;;;18.70;7.70;;;;;;;0.59;72.10;101233.83;1656954;85;21657;-73
2022/02/24 05:23:22;;;;;;;20.65;8.45;;;;;;;0.60;72.16;101227.06;1660342;85;21042;-73
2022/02/24 05:25:48;;;;;;;19.27;7.25;;;;;;;0.60;72.09;101230.88;1672562;85;21837;-72
2022/02/24 05:28:14;;;;;;;19.17;8.15;;;;;;;0.59;72.19;101223.65;1672778;85;20969;-73
2022/02/24 05:30:40;;;;;;;20.52;7.90;;;;;;;0.60;72.18;101222.84;1651615;85;20936;-73
2022/02/24 05:33:09;;;;;;;22.30;8.00;;;;;;;0.59;72.18;101224.92;1661639;84;21092;-73
2022/02/24 05:35:35;;;;;;;17.98;8.03;;;;;;;0.58;72.13;101229.96;1677148;84;21069;-73
2022/02/24 05:38:01;;;;;;;16.55;7.90;;;;;;;0.56;72.20;101231.17;1655636;84;21147;-72
2022/02/24 05:40:28;;;;;;;18.48;7.53;;;;;;;0.57;72.22;101226.95;1665011;85;21071;-73
2022/02/24 05:42:54;;;;;;;;;;;;;;;0.55;72.19;101229.85;1672086;84;21091;-73
2022/02/24 05:45:20;;;;;;;17.67;6.67;;;;;;;0.53;72.37;101227.66;1669317;84;20243;-73
2022/02/24 05:47:49;;;;;;;17.52;7.42;;;;;;;0.50;72.17;101225.05;1668499;84;21044;-73
2022/02/24 05:50:15;;;;;;;17.87;7.58;;;;;;;0.48;72.17;101236.44;1653526;84;21004;-73
2022/02/24 05:52:41;;;;;;;17.23;7.15;;;;;;;0.44;72.14;101231.19;1665501;85;20866;-74
2022/02/24 05:55:09;;;;;;;;;;;;;;;0.40;72.20;101234.03;1669240;85;21107;-74
2022/02/24 05:57:35;;;;;;;21.07;7.42;;;;;;;0.40;72.36;101235.71;1660055;85;20161;-73
2022/02/24 06:00:01;;;;;;;17.07;7.28;;;;;;;0.36;72.19;101230.92;1670190;83;89967;-74
2022/02/24 06:02:28;;;;;;;18.37;6.95;;;;;;;0.33;72.25;101224.45;1665286;84;21120;-74
2022/02/24 06:04:54;;;;;;;16.35;7.50;;;;;;;0.29;72.25;101224.75;1638311;85;21100;-74
2022/02/24 06:07:20;;;;;;;21.80;7.87;;;;;;;0.29;72.33;101227.70;1656434;85;21064;-74
2022/02/24 06:09:48;;;;;;;18.73;7.72;;;;;;;0.28;72.26;101227.24;1668349;84;21043;-74
2022/02/24 06:12:14;;;;;;;23.77;8.48;;;;;;;0.25;72.31;101231.81;1672860;84;21043;-74
2022/02/24 06:14:40;;;;;;;18.57;8.03;;;;;;;0.27;72.41;101225.52;1661228;84;21257;-73
2022/02/24 06:17:07;;;;;;;17.85;7.42;;;;;;;0.29;72.44;101226.44;1671733;84;21111;-74
2022/02/24 06:19:33;;;;;;;25.68;8.25;;;;;;;0.31;72.50;101234.98;1669913;84;20920;-74
2022/02/24 06:21:59;;;;;;;23.12;8.45;;;;;;;0.36;72.56;101231.33;1648616;85;21444;-75
2022/02/24 06:24:31;;;;;;;21.37;7.85;;;;;;;0.37;72.56;101228.84;1671384;84;21047;-74
2022/02/24 06:26:57;;;;;;;15.40;7.35;;;;;;;0.41;72.57;101233.22;1672264;84;21051;-74
2022/02/24 06:29:23;;;;;;;26.73;8.20;;;;;;;0.45;72.52;101210.89;1666038;84;21392;-74
2022/02/24 06:31:49;;;;;;;20.57;8.53;;;;;;;0.48;72.54;101224.99;1665959;84;20930;-75
2022/02/24 06:34:15;;;;;;;17.43;7.50;;;;;;;0.53;72.65;101217.08;1661772;84;20924;-74
2022/02/24 06:36:43;;;;;;;23.22;8.10;;;;;;;0.59;72.67;101216.02;1672671;84;21339;-73
2022/02/24 06:39:09;;;;;;;21.50;7.65;;;;;;;0.65;72.71;101215.36;1672199;84;20984;-73
2022/02/24 06:41:35;;;;;;;18.40;7.83;;;;;;;0.71;72.75;101218.11;1672788;84;20955;-73
2022/02/24 06:44:01;;;;;;;18.32;8.03;;;;;;;0.82;72.82;101209.56;1676476;84;21104;-74
2022/02/24 06:46:27;;;;;;;19.87;8.53;;;;;;;0.92;72.83;101210.31;1673739;84;21149;-74
2022/02/24 06:48:53;;;;;;;21.15;7.92;;;;;;;1.05;72.94;101207.73;1671869;84;21627;-74
2022/02/24 06:51:19;;;;;;;18.50;8.53;;;;;;;1.20;72.89;101208.22;1671208;84;21064;-74
2022/02/24 06:53:45;;;;;;;21.33;7.53;;;;;;;1.30;72.96;101200.91;1657841;84;21507;-74
2022/02/24 06:56:11;;;;;;;21.25;8.00;;;;;;;1.47;72.98;101205.25;1654338;84;21104;-74
2022/02/24 06:58:37;;;;;;;27.67;9.60;;;;;;;1.65;73.02;101194.70;1664876;84;21047;-74
2022/02/24 07:01:04;;;;;;;19.10;9.03;;;;;;;1.83;72.99;101196.93;1665978;84;20933;-74
2022/02/24 07:03:30;;;;;;;20.02;8.15;;;;;;;2.05;73.06;101199.68;1656831;85;21107;-74
2022/02/24 07:05:56;;;;;;;22.00;8.75;;;;;;;2.27;72.97;101199.00;1660203;84;21059;-73
2022/02/24 07:08:22;;;;;;;22.27;9.03;;;;;;;2.50;73.05;101193.64;1672245;84;21048;-74
2022/02/24 07:10:48;;;;;;;22.67;8.78;;;;;;;2.72;73.04;101197.58;1671556;84;22209;-74
2022/02/24 07:13:14;;;;;;;19.57;8.83;;;;;;;2.90;73.02;101184.86;1670061;84;21001;-74
2022/02/24 07:15:40;;;;;;;21.95;9.40;;;;;;;3.09;72.97;101175.94;1669082;84;21039;-75
2022/02/24 07:18:08;;;;;;;21.23;8.10;;;;;;;3.19;72.91;101180.82;1671031;84;21099;-74
2022/02/24 07:20:34;;;;;;;17.07;8.33;;;;;;;3.24;72.89;101174.98;1663823;84;21063;-74
2022/02/24 07:23:06;;;;;;;22.82;9.20;;;;;;;3.29;72.86;101173.40;1678324;84;21064;-74
2022/02/24 07:25:32;;;;;;;21.27;8.07;;;;;;;3.38;72.90;101165.48;1665983;84;21012;-74
2022/02/24 07:27:58;;;;;;;19.87;9.23;;;;;;;3.49;72.94;101173.84;1680230;82;20924;-74
2022/02/24 07:30:30;;;;;;;24.95;9.68;;;;;;;3.62;72.95;101172.41;1666939;84;21029;-74
2022/02/24 07:32:56;;;;;;;24.20;9.33;;;;;;;3.72;72.90;101160.64;1666610;84;21100;-74
2022/02/24 07:35:23;;;;;;;26.80;9.58;;;;;;;3.81;72.93;101156.58;1666689;84;21084;-74
2022/02/24 07:37:51;;;;;;;17.25;8.63;;;;;;;3.93;72.93;101155.55;1657449;84;21118;-74
2022/02/24 07:40:17;;;;;;;21.05;7.87;;;;;;;4.06;72.93;101151.53;1665872;84;21052;-74
2022/02/24 07:42:44;;;;;;;21.30;8.27;;;;;;;4.17;72.88;101150.42;1660701;84;21727;-74
2022/02/24 07:45:14;;;;;;;19.02;8.18;;;;;;;4.23;72.90;101150.12;1667392;84;21064;-74
2022/02/24 07:47:40;;;;;;;20.13;8.80;;;;;;;4.33;73.02;101145.62;1663235;84;21570;-74
2022/02/24 07:50:13;;;;;;;21.85;9.25;;;;;;;4.43;73.00;101143.22;1666347;84;21048;-75
2022/02/24 07:52:35;;;;;;;19.57;7.78;;;;;;;4.54;73.02;101145.13;1651109;84;21061;-75
2022/02/24 07:55:01;;;;;;;21.90;7.80;;;;;;;4.67;72.98;101141.50;1672588;84;20956;-74
2022/02/24 07:57:27;;;;;;;19.33;8.03;;;;;;;4.77;72.99;101143.34;1671234;84;21816;-74
2022/02/24 07:59:53;;;;;;;22.42;9.48;;;;;;;4.90;73.08;101142.28;1669050;84;21436;-74
2022/02/24 08:02:19;;;;;;;24.67;8.93;;;;;;;5.11;73.17;101138.31;1669664;84;20992;-74
2022/02/24 08:04:46;;;;;;;21.35;8.73;;;;;;;5.32;73.29;101133.05;1651711;85;21071;-74
2022/02/24 08:07:11;;;;;;;20.77;9.07;;;;;;;5.53;73.35;101128.63;1667489;84;21739;-74
2022/02/24 08:09:38;;;;;;;23.43;8.50;;;;;;;5.72;73.35;101124.55;1657874;84;21009;-75
2022/02/24 08:14:53;;;;;;;20.50;8.58;;;;;;;5.96;73.28;101115.02;1669440;84;21857;-74
2022/02/24 08:17:20;;;;;;;22.97;9.33;;;;;;;6.07;73.12;101106.16;1672090;84;20862;-75
2022/02/24 08:19:45;;;;;;;;;;;;;;;6.05;73.01;101101.00;1665256;84;20921;-74
2022/02/24 08:22:12;;;;;;;17.82;7.95;;;;;;;6.02;72.69;101105.25;1661104;84;20192;-74
2022/02/24 08:24:38;;;;;;;16.70;8.25;;;;;;;6.04;72.97;101097.14;1671391;84;20937;-75
2022/02/24 08:27:04;;;;;;;20.70;7.70;;;;;;;6.02;72.92;101091.98;1664665;84;20972;-74
2022/02/24 08:29:30;;;;;;;20.60;8.17;;;;;;;6.05;73.01;101093.30;1673417;84;20944;-74
2022/02/24 08:31:56;;;;;;;19.12;8.45;;;;;;;6.14;73.08;101078.41;1674865;84;21194;-74
2022/02/24 08:34:23;;;;;;;18.75;8.10;;;;;;;6.21;72.99;101073.77;1664000;84;21284;-74
2022/02/24 08:36:55;;;;;;;25.97;8.28;;;;;;;6.25;72.90;101072.92;1669958;84;21357;-74
2022/02/24 08:39:23;;;;;;;25.27;9.40;;;;;;;6.29;72.91;101065.69;1662199;84;21430;-74
2022/02/24 08:41:50;;;;;;;22.27;9.60;;;;;;;6.33;72.95;101061.01;1673024;84;21471;-74
2022/02/24 08:44:16;;;;;;;24.05;9.60;;;;;;;6.31;72.84;101056.28;1673268;84;26647;-75
2022/02/24 08:46:45;;;;;;;19.30;8.73;;;;;;;6.23;72.66;101054.97;1671287;84;21390;-75
2022/02/24 08:49:12;;;;;;;23.62;9.03;;;;;;;6.19;72.68;101050.65;1673201;84;21430;-75
2022/02/24 08:51:39;;;;;;;;;;;;;;;6.17;72.68;101044.64;1675505;84;21048;-75
2022/02/24 08:54:05;;;;;;;16.67;7.97;;;;;;;6.10;72.35;101041.58;1671854;84;20177;-74
2022/02/24 08:56:31;;;;;;;24.03;9.70;;;;;;;6.03;72.59;101037.66;1668323;84;20878;-74
2022/02/24 08:58:57;;;;;;;17.23;8.13;;;;;;;5.95;72.53;101031.16;1667664;84;21059;-74
2022/02/24 09:01:23;;;;;;;19.90;7.42;;;;;;;5.92;72.54;101029.85;1661016;84;21131;-75
2022/02/24 09:03:50;;;;;;;20.10;7.25;;;;;;;5.91;72.58;101024.28;1661213;84;20975;-74
2022/02/24 09:06:18;;;;;;;20.32;7.70;;;;;;;5.90;72.46;101017.43;1667008;83;21064;-74
2022/02/24 09:08:44;;;;;;;18.20;8.13;;;;;;;5.88;72.52;101016.09;1671049;84;21022;-74
2022/02/24 09:11:11;;;;;;;19.20;7.92;;;;;;;5.87;72.42;101008.38;1672436;84;25336;-75
2022/02/24 09:13:41;;;;;;;18.77;7.90;;;;;;;5.87;72.48;101000.69;1658923;84;21039;-74
2022/02/24 09:16:08;;;;;;;20.60;8.05;;;;;;;5.91;72.40;101000.76;1671240;84;21056;-74
2022/02/24 09:18:35;;;;;;;16.97;7.55;;;;;;;5.92;72.38;100992.22;1667600;84;20946;-75
2022/02/24 09:21:04;;;;;;;24.77;8.28;;;;;;;5.95;72.33;100988.39;1645223;85;20913;-74
2022/02/24 09:23:30;;;;;;;15.25;7.20;;;;;;;6.00;72.38;100990.14;1665276;84;21453;-74
2022/02/24 09:25:56;;;;;;;18.47;7.37;;;;;;;6.10;72.01;100979.97;1670004;84;20880;-74
2022/02/24 09:28:22;;;;;;;18.17;8.10;;;;;;;6.10;72.01;100979.97;1673100;84;21188;-74
2022/02/24 09:30:48;;;;;;;17.73;7.47;;;;;;;6.14;72.20;100980.42;1651944;85;20878;-74
2022/02/24 09:33:14;;;;;;;18.73;7.07;;;;;;;6.17;72.14;100976.59;1645418;85;20887;-74
2022/02/24 09:35:40;;;;;;;18.17;7.77;;;;;;;6.21;72.09;100974.91;1672085;84;20892;-75
2022/02/24 09:38:06;;;;;;;17.00;8.15;;;;;;;6.24;72.08;100965.49;1672164;84;21316;-74
2022/02/24 09:40:35;;;;;;;17.02;8.13;;;;;;;6.33;72.10;100972.41;1663011;84;21318;-74
2022/02/24 09:43:04;;;;;;;26.17;7.77;;;;;;;6.40;72.10;100966.89;1670746;81;20909;-75
2022/02/24 09:45:30;;;;;;;15.20;7.53;;;;;;;6.46;72.00;100952.80;1673102;84;20917;-74
2022/02/24 09:47:59;;;;;;;19.77;8.58;;;;;;;6.49;71.97;100942.12;1672281;84;20945;-74
2022/02/24 09:50:27;;;;;;;14.50;7.00;;;;;;;6.53;71.91;100934.86;1644945;84;20944;-75
2022/02/24 09:52:53;;;;;;;18.27;7.42;;;;;;;6.57;71.95;100934.03;1665756;84;20916;-75
2022/02/24 09:55:19;;;;;;;15.90;7.03;;;;;;;6.60;71.89;100928.91;1671755;84;20941;-74
2022/02/24 09:57:46;;;;;;;14.53;6.75;;;;;;;6.65;71.86;100919.94;1672793;84;21260;-74
2022/02/24 10:00:13;;;;;;;21.42;6.53;;;;;;;6.69;71.88;100911.82;1672470;84;21055;-74
2022/02/24 10:02:40;;;;;;;12.05;7.20;;;;;;;6.74;71.84;100913.98;1677637;84;20877;-74
2022/02/24 10:05:10;;;;;;;12.82;6.28;;;;;;;6.76;71.68;100904.57;1669669;84;21484;-74
2022/02/24 10:07:38;;;;;;;16.07;6.40;;;;;;;6.78;71.69;100905.41;1671990;84;21615;-75
2022/02/24 10:10:31;;;;;;;14.68;6.42;;;;;;;6.78;71.67;100895.13;1672912;84;21742;-74
2022/02/24 10:13:09;;;;;;;12.60;5.78;;;;;;;6.81;71.73;100883.57;1671329;84;20872;-74
2022/02/24 10:15:57;;;;;;;13.32;6.08;;;;;;;6.87;71.63;100874.60;1666837;84;20981;-75
2022/02/24 10:18:27;;;;;;;16.40;7.60;;;;;;;6.92;71.68;100858.34;1661289;84;21096;-74
2022/02/24 10:20:58;;;;;;;15.00;5.78;;;;;;;7.01;71.59;100856.64;1670344;84;21093;-74
2022/02/24 10:23:34;;;;;;;14.53;6.53;;;;;;;7.09;71.58;100850.67;1667343;84;21543;-74
2022/02/24 10:26:06;;;;;;;16.52;5.97;;;;;;;7.18;71.52;100850.69;1667691;84;21052;-74
2022/02/24 10:28:46;;;;;;;15.95;5.55;;;;;;;7.25;71.52;100845.98;1657716;84;21070;-74
2022/02/24 10:31:18;;;;;;;19.77;5.95;;;;;;;7.34;71.35;100836.53;1667523;84;21059;-74
2022/02/24 10:33:51;;;;;;;13.03;5.67;;;;;;;7.42;71.29;100829.67;1681650;84;21032;-74
2022/02/24 10:36:25;;;;;;;15.70;6.40;;;;;;;7.49;71.32;100818.09;1672373;84;20944;-74
2022/02/24 10:39:11;;;;;;;11.78;5.15;;;;;;;7.59;71.40;100812.52;1666586;84;21385;-74
2022/02/24 10:41:41;;;;;;;11.50;5.70;;;;;;;7.67;71.30;100813.80;1658000;84;20996;-75
2022/02/24 10:44:15;;;;;;;13.43;5.37;;;;;;;7.68;71.04;100800.08;1670493;84;21279;-75
2022/02/24 10:46:47;;;;;;;8.85;4.72;;;;;;;7.65;70.96;100797.08;1664030;84;21389;-75
2022/02/24 10:49:35;;;;;;;15.05;6.05;;;;;;;7.64;71.03;100779.92;1662671;84;20885;-75
2022/02/24 10:52:20;;;;;;;10.20;4.80;;;;;;;7.64;71.04;100774.77;1661816;84;21334;-76
2022/02/24 10:55:05;;;;;;;11.57;4.72;;;;;;;7.68;71.01;100768.77;1635266;84;20889;-75
2022/02/24 10:57:32;;;;;;;15.28;5.37;;;;;;;7.72;71.02;100760.61;1659423;84;21424;-75
2022/02/24 11:00:00;;;;;;;10.68;4.87;;;;;;;7.78;70.94;100760.17;1419950;84;20002449;-75
2022/02/24 11:02:28;;;;;;;12.35;5.40;;;;;;;7.84;70.98;100752.40;1653033;85;26383;-75
2022/02/24 11:04:56;;;;;;;13.45;5.65;;;;;;;7.90;70.94;100745.94;1649103;85;40290;-76
2022/02/24 11:07:23;;;;;;;15.25;5.72;;;;;;;8.02;70.95;100750.20;1626101;86;20881;-76
2022/02/24 11:09:57;;;;;;;17.23;6.28;;;;;;;8.09;70.92;100739.02;1622832;86;21530;-76
2022/02/24 11:12:29;;;;;;;14.20;6.80;;;;;;;8.17;70.84;100739.84;1622382;86;21393;-75
2022/02/24 11:14:56;;;;;;;18.82;6.33;;;;;;;8.27;70.82;100737.66;1628571;86;21435;-75
2022/02/24 11:17:22;;;;;;;;;;;;;;;8.33;70.61;100731.62;1632314;86;21438;-75
2022/02/24 11:19:48;;;;;;;17.42;5.95;;;;;;;8.32;69.95;100732.91;1615933;86;20476;-75
2022/02/24 11:22:14;;;;;;;13.17;5.83;;;;;;;8.24;70.35;100715.77;1627534;86;21459;-75
2022/02/24 11:24:42;;;;;;;16.20;7.13;;;;;;;8.13;70.56;100703.38;1617219;86;21416;-75
2022/02/24 11:27:37;;;;;;;18.77;7.58;;;;;;;8.19;70.43;100703.78;1627544;86;21835;-75
2022/02/24 11:30:12;;;;;;;15.35;7.33;;;;;;;8.17;70.39;100702.92;1614617;86;21429;-74